Time;durP1;ratioP1;P1;durP2;ratioP2;P2;SDS_P1;SDS_P2;PMS_P1;PMS_P2;Temp;Humidity;BMP_temperature;BMP_pressure;BME280_temperature;BME280_humidity;BME280_pressure;Samples;Min_cycle;Max_cycle;Signal;HPM_P1;HPM_P2
2022/04/12 01:57:11;;;;;;;6.55;4.68;;;7.30;93.20;;;;;;4985839;23;20139;-88
2022/04/12 02:07:30;;;;;;;6.82;4.55;;;7.20;93.30;;;;;;4881429;29;20117;-89
2022/04/12 02:09:56;;;;;;;8.52;4.72;;;7.20;93.40;;;;;;4869030;29;20086;-87
2022/04/12 02:12:34;;;;;;;7.20;4.72;;;7.10;93.60;;;;;;4931488;29;20493;-88
2022/04/12 02:15:02;;;;;;;7.00;4.65;;;7.10;93.70;;;;;;4941932;29;20078;-88
2022/04/12 02:17:29;;;;;;;6.30;4.55;;;7.10;93.80;;;;;;4942069;29;20042;-88
2022/04/12 02:19:55;;;;;;;6.47;4.63;;;7.20;94.10;;;;;;4941520;29;20055;-88
2022/04/12 02:22:25;;;;;;;7.65;5.20;;;7.20;94.10;;;;;;4942301;29;20027;-88
2022/04/12 02:24:51;;;;;;;5.85;4.43;;;7.10;94.10;;;;;;4931901;29;20043;-88
2022/04/12 02:27:26;;;;;;;6.22;4.75;;;7.10;94.10;;;;;;4923144;29;20034;-89
2022/04/12 02:29:52;;;;;;;6.95;4.68;;;7.00;94.20;;;;;;4945843;29;20122;-88
2022/04/12 02:32:24;;;;;;;6.68;4.63;;;7.00;94.20;;;;;;4943913;29;20351;-88
2022/04/12 02:34:50;;;;;;;7.82;4.75;;;7.00;94.40;;;;;;4943668;29;20363;-88
2022/04/12 02:37:15;;;;;;;8.02;5.28;;;7.00;94.50;;;;;;4945726;29;20058;-88
2022/04/12 02:39:41;;;;;;;7.68;5.00;;;6.90;94.50;;;;;;4945362;29;20020;-89
2022/04/12 02:42:12;;;;;;;6.57;4.63;;;6.90;94.50;;;;;;4949196;29;20037;-87
2022/04/12 02:44:38;;;;;;;6.63;4.90;;;6.80;94.70;;;;;;4944737;29;20027;-88
2022/04/12 02:47:06;;;;;;;8.38;4.88;;;6.80;94.80;;;;;;4926593;29;20067;-88
2022/04/12 02:49:35;;;;;;;9.45;4.90;;;6.80;94.90;;;;;;4936804;29;20062;-88
2022/04/12 02:52:08;;;;;;;6.50;4.45;;;6.80;95.00;;;;;;4923642;29;20027;-88
2022/04/12 02:54:34;;;;;;;8.82;4.80;;;6.80;95.00;;;;;;4943163;28;20111;-87
2022/04/12 02:57:00;;;;;;;7.35;4.85;;;6.80;95.10;;;;;;4942586;29;20493;-88
2022/04/12 02:59:25;;;;;;;7.10;4.90;;;6.80;95.20;;;;;;4958740;29;20079;-87
2022/04/12 03:01:51;;;;;;;7.55;4.90;;;6.80;95.20;;;;;;4945445;29;20027;-88
2022/04/12 03:04:16;;;;;;;7.50;4.93;;;6.70;95.20;;;;;;4956637;29;20046;-88
2022/04/12 03:06:42;;;;;;;6.93;5.05;;;6.70;95.30;;;;;;4923464;29;20026;-88
2022/04/12 03:09:08;;;;;;;8.20;4.60;;;6.60;95.30;;;;;;4921566;29;20096;-88
2022/04/12 03:11:35;;;;;;;7.40;4.95;;;6.60;95.40;;;;;;4921242;29;20055;-89
2022/04/12 03:14:01;;;;;;;7.60;5.10;;;6.60;95.60;;;;;;4921206;29;20110;-88
2022/04/12 03:16:27;;;;;;;7.95;5.10;;;6.60;95.70;;;;;;4921309;29;20220;-89
2022/04/12 03:18:53;;;;;;;6.60;4.65;;;6.50;95.80;;;;;;4922289;29;20027;-87
2022/04/12 03:21:18;;;;;;;9.20;4.90;;;6.50;95.90;;;;;;4952534;29;20032;-87
2022/04/12 03:23:44;;;;;;;8.45;4.82;;;6.50;95.90;;;;;;4941178;29;20029;-87
2022/04/12 03:26:09;;;;;;;7.22;5.03;;;6.50;96.00;;;;;;4960444;29;20485;-88
2022/04/12 03:28:35;;;;;;;7.10;5.18;;;6.50;96.10;;;;;;4937820;29;20038;-89
2022/04/12 03:31:01;;;;;;;6.13;5.03;;;6.50;96.20;;;;;;4947920;29;20031;-88
2022/04/12 03:33:27;;;;;;;7.60;5.47;;;6.50;96.30;;;;;;4955819;29;20512;-88
2022/04/12 03:35:52;;;;;;;7.97;5.15;;;6.50;96.30;;;;;;4940348;29;20031;-87
2022/04/12 03:38:20;;;;;;;9.95;5.68;;;6.50;96.30;;;;;;4939995;28;20134;-87
2022/04/12 03:40:47;;;;;;;7.68;5.45;;;6.50;96.40;;;;;;4922539;29;20390;-88
2022/04/12 03:43:13;;;;;;;8.90;5.82;;;6.50;96.50;;;;;;4924358;29;20027;-88
2022/04/12 03:45:38;;;;;;;8.50;5.28;;;6.50;96.60;;;;;;4935119;29;20107;-87
2022/04/12 03:48:05;;;;;;;7.47;5.57;;;6.50;96.70;;;;;;4924996;29;20079;-87
2022/04/12 03:50:34;;;;;;;6.65;4.75;;;6.50;96.80;;;;;;4934388;29;20398;-87
2022/04/12 03:53:00;;;;;;;8.15;5.07;;;6.50;96.90;;;;;;4939836;29;20064;-88
2022/04/12 03:55:34;;;;;;;8.23;4.80;;;6.60;97.20;;;;;;4939880;29;20023;-88
2022/04/12 03:58:08;;;;;;;8.27;5.15;;;6.60;97.20;;;;;;4934846;29;20123;-87
2022/04/12 04:00:35;;;;;;;8.25;4.78;;;6.60;97.10;;;;;;4951017;29;20030;-88
2022/04/12 04:03:01;;;;;;;7.95;5.75;;;6.70;97.00;;;;;;4955591;28;20019;-87
2022/04/12 04:05:27;;;;;;;8.23;5.85;;;6.70;97.00;;;;;;4945198;29;20496;-87
2022/04/12 04:07:53;;;;;;;7.63;5.47;;;6.70;97.10;;;;;;4940722;29;20257;-88
2022/04/12 04:10:45;;;;;;;7.20;5.07;;;6.70;97.20;;;;;;4942138;29;20046;-88
2022/04/12 04:13:11;;;;;;;6.37;4.73;;;6.70;97.10;;;;;;4935723;29;20051;-88
2022/04/12 04:15:40;;;;;;;7.85;5.10;;;6.80;97.10;;;;;;4932611;29;20820;-88
2022/04/12 04:18:06;;;;;;;7.13;5.32;;;6.70;97.10;;;;;;4940312;28;20439;-88
2022/04/12 04:20:32;;;;;;;9.32;5.35;;;6.80;97.20;;;;;;4944302;29;20031;-87
2022/04/12 04:22:58;;;;;;;7.63;5.40;;;6.80;97.20;;;;;;4945339;29;20030;-88
2022/04/12 04:25:24;;;;;;;6.88;5.57;;;6.80;97.30;;;;;;4961662;29;20027;-88
2022/04/12 04:27:49;;;;;;;9.70;5.82;;;6.80;97.30;;;;;;4960980;29;20048;-89
2022/04/12 04:30:17;;;;;;;7.72;5.80;;;6.80;97.40;;;;;;4953620;29;20039;-89
2022/04/12 04:32:43;;;;;;;9.32;5.03;;;6.80;97.30;;;;;;4961459;29;20030;-90
2022/04/12 04:35:09;;;;;;;11.57;6.30;;;6.70;97.40;;;;;;4961526;29;20028;-89
2022/04/12 04:37:46;;;;;;;8.73;6.15;;;6.80;97.50;;;;;;4947834;29;20037;-87
2022/04/12 04:40:17;;;;;;;7.20;5.72;;;6.70;97.50;;;;;;4941411;29;20028;-87
2022/04/12 04:42:44;;;;;;;7.85;4.97;;;6.80;97.50;;;;;;4932816;29;20055;-88
2022/04/12 04:49:14;;;;;;;10.02;5.93;;;6.70;97.60;;;;;;4949745;29;20042;-89
2022/04/12 05:09:04;;;;;;;8.25;5.07;;;6.60;97.80;;;;;;4964459;23;20082;-86
2022/04/12 05:11:31;;;;;;;7.50;5.20;;;6.70;97.80;;;;;;4956395;28;20154;-85
2022/04/12 05:13:57;;;;;;;6.93;5.00;;;6.70;97.90;;;;;;4969163;28;20015;-85
2022/04/12 05:16:22;;;;;;;7.75;5.28;;;6.70;97.90;;;;;;4972203;28;20046;-86
2022/04/12 05:18:48;;;;;;;10.73;6.07;;;6.70;98.00;;;;;;4971899;28;20075;-86
2022/04/12 05:21:14;;;;;;;6.53;5.25;;;6.70;98.00;;;;;;4968844;28;20027;-85
2022/04/12 05:23:39;;;;;;;8.57;5.45;;;6.80;97.90;;;;;;4960347;28;20062;-86
2022/04/12 05:26:05;;;;;;;10.57;5.68;;;6.70;97.80;;;;;;4950309;28;20504;-85
2022/04/12 05:28:31;;;;;;;7.70;5.78;;;6.70;97.80;;;;;;4958122;29;20023;-86
2022/04/12 05:30:56;;;;;;;12.50;5.50;;;6.70;97.80;;;;;;4959214;28;20110;-85
2022/04/12 05:33:22;;;;;;;8.45;5.45;;;6.70;98.00;;;;;;4955741;29;20126;-86
2022/04/12 05:35:47;;;;;;;10.35;5.65;;;6.60;98.10;;;;;;4943338;29;20114;-85
2022/04/12 05:38:13;;;;;;;9.68;5.38;;;6.60;98.30;;;;;;4944487;28;20031;-85
2022/04/12 05:40:39;;;;;;;9.50;6.00;;;6.70;98.40;;;;;;4961347;28;20388;-86
2022/04/12 05:43:04;;;;;;;10.52;5.72;;;6.70;98.50;;;;;;4961471;28;20027;-86
2022/04/12 05:45:31;;;;;;;12.60;5.43;;;6.80;98.60;;;;;;4949887;28;20025;-86
2022/04/12 05:47:56;;;;;;;9.02;6.05;;;6.80;98.50;;;;;;4953481;28;20031;-86
2022/04/12 05:50:25;;;;;;;10.85;5.60;;;6.80;98.60;;;;;;4942454;29;20090;-86
2022/04/12 05:52:51;;;;;;;7.32;5.53;;;6.90;98.70;;;;;;4960514;28;20031;-86
2022/04/12 05:55:18;;;;;;;7.82;5.05;;;6.90;98.70;;;;;;4942445;29;20163;-86
2022/04/12 05:57:55;;;;;;;7.22;4.97;;;7.00;98.80;;;;;;4963399;28;20399;-86
2022/04/12 06:00:21;;;;;;;10.45;5.53;;;7.10;98.90;;;;;;4949964;29;20031;-86
2022/04/12 06:02:48;;;;;;;8.00;5.10;;;7.10;98.90;;;;;;4960729;28;20020;-86
2022/04/12 06:05:14;;;;;;;9.85;5.32;;;7.20;98.90;;;;;;4960500;29;20026;-84
2022/04/12 06:07:41;;;;;;;8.20;4.95;;;7.30;98.90;;;;;;4950466;29;20054;-85
2022/04/12 06:10:07;;;;;;;8.18;5.10;;;7.30;98.90;;;;;;4943086;29;20458;-86
2022/04/12 06:12:33;;;;;;;8.90;5.88;;;7.50;99.00;;;;;;4942059;28;20035;-86
2022/04/12 06:14:58;;;;;;;7.03;5.35;;;7.50;98.90;;;;;;4971284;28;20365;-86
2022/04/12 06:17:32;;;;;;;9.38;5.80;;;7.60;98.90;;;;;;4944341;28;20042;-86
2022/04/12 06:20:08;;;;;;;8.68;5.80;;;7.70;98.90;;;;;;4959326;28;20030;-86
2022/04/12 06:22:34;;;;;;;13.07;6.28;;;7.80;98.90;;;;;;4949860;28;20130;-86
2022/04/12 06:25:00;;;;;;;12.88;6.95;;;7.90;98.90;;;;;;4940859;29;20146;-86
2022/04/12 06:27:30;;;;;;;12.60;6.75;;;8.00;98.80;;;;;;4943196;28;20125;-86
2022/04/12 06:29:57;;;;;;;15.45;7.22;;;8.10;98.80;;;;;;4958472;28;20039;-86
2022/04/12 06:32:23;;;;;;;11.52;6.78;;;8.30;98.80;;;;;;4975176;28;20026;-86
2022/04/12 06:34:48;;;;;;;17.13;6.78;;;8.40;98.70;;;;;;4942209;28;20649;-85
2022/04/12 06:37:14;;;;;;;10.88;6.82;;;8.50;98.70;;;;;;4962290;28;20023;-85
2022/04/12 06:39:39;;;;;;;10.13;6.38;;;8.70;98.70;;;;;;4957696;28;20514;-84
2022/04/12 06:42:05;;;;;;;9.57;5.93;;;8.90;98.70;;;;;;4941633;29;20121;-85
2022/04/12 06:44:32;;;;;;;11.35;6.30;;;9.00;98.60;;;;;;4961426;28;20117;-85
2022/04/12 06:46:58;;;;;;;10.38;5.72;;;9.20;98.40;;;;;;4976674;28;20027;-86
2022/04/12 06:49:24;;;;;;;8.90;5.90;;;9.30;98.20;;;;;;4961892;28;20027;-86
2022/04/12 06:51:49;;;;;;;6.65;5.25;;;9.50;98.10;;;;;;4940616;28;20027;-86
2022/04/12 06:54:15;;;;;;;8.98;5.22;;;9.60;98.00;;;;;;4941127;28;20037;-85
2022/04/12 06:56:40;;;;;;;28.65;14.95;;;9.70;98.00;;;;;;4972644;28;20031;-85
2022/04/12 06:59:06;;;;;;;9.20;5.85;;;9.90;98.00;;;;;;4976454;28;20519;-86
2022/04/12 07:01:32;;;;;;;8.60;5.10;;;10.10;97.70;;;;;;4966553;28;20034;-85
2022/04/12 07:03:57;;;;;;;7.55;6.00;;;10.30;97.50;;;;;;4960092;28;20031;-85
2022/04/12 07:06:23;;;;;;;10.27;5.63;;;10.50;97.30;;;;;;4941457;28;20055;-86
2022/04/12 07:08:48;;;;;;;8.35;5.03;;;10.70;97.00;;;;;;4957665;28;20045;-85
2022/04/12 07:11:14;;;;;;;10.35;4.97;;;10.80;96.90;;;;;;4947119;28;20057;-84
2022/04/12 07:13:39;;;;;;;7.32;4.82;;;11.10;96.80;;;;;;4946551;28;20035;-85
2022/04/12 07:16:05;;;;;;;7.40;4.95;;;11.30;96.70;;;;;;4936138;28;20539;-85
2022/04/12 07:18:31;;;;;;;6.80;5.10;;;11.60;96.50;;;;;;4937138;28;20341;-85
2022/04/12 07:20:56;;;;;;;8.60;4.95;;;11.80;96.40;;;;;;4945482;28;20031;-85
2022/04/12 07:23:22;;;;;;;8.95;5.53;;;12.10;96.30;;;;;;4947475;28;20427;-85
2022/04/12 07:25:47;;;;;;;8.43;4.55;;;12.40;96.20;;;;;;4955531;28;20027;-87
2022/04/12 07:28:13;;;;;;;7.13;4.60;;;12.60;95.60;;;;;;4967531;28;20036;-86
2022/04/12 07:30:38;;;;;;;5.60;4.45;;;12.80;95.30;;;;;;4972880;28;20034;-86
2022/04/12 07:33:04;;;;;;;5.78;4.65;;;13.00;95.30;;;;;;4971871;28;20035;-85
2022/04/12 07:35:30;;;;;;;7.20;4.93;;;13.20;95.00;;;;;;4969980;28;20415;-86
2022/04/12 07:37:56;;;;;;;5.72;4.25;;;13.50;94.60;;;;;;4971601;28;20019;-84
2022/04/12 07:40:22;;;;;;;5.38;4.25;;;13.70;94.40;;;;;;4946262;28;20101;-85
2022/04/12 07:42:48;;;;;;;5.80;4.40;;;14.00;94.40;;;;;;4957969;28;20027;-86
2022/04/12 07:45:14;;;;;;;8.02;4.82;;;14.30;94.20;;;;;;4957492;28;20024;-85
2022/04/12 07:47:39;;;;;;;8.13;4.13;;;14.60;93.90;;;;;;4953709;28;20054;-86
2022/04/12 07:50:06;;;;;;;6.32;3.78;;;15.00;93.40;;;;;;4960343;28;20059;-85
2022/04/12 07:52:31;;;;;;;5.28;3.90;;;15.20;92.60;;;;;;4940602;28;20488;-86
2022/04/12 07:54:57;;;;;;;7.88;3.67;;;15.40;91.80;;;;;;4960505;28;20086;-84
2022/04/12 07:57:23;;;;;;;5.10;3.67;;;15.50;91.50;;;;;;4974199;28;20043;-85
2022/04/12 07:59:48;;;;;;;4.47;3.35;;;15.90;91.50;;;;;;4972284;28;20051;-85
2022/04/12 08:02:14;;;;;;;3.67;3.20;;;16.30;91.20;;;;;;4976742;28;20034;-87
2022/04/12 08:04:41;;;;;;;4.57;3.00;;;16.70;90.60;;;;;;4957488;28;20471;-86
2022/04/12 08:07:07;;;;;;;6.25;2.97;;;17.10;89.00;;;;;;4944651;29;20035;-86
2022/04/12 08:09:32;;;;;;;5.38;2.63;;;17.50;87.30;;;;;;4968292;28;20019;-86
2022/04/12 08:11:58;;;;;;;6.32;3.10;;;17.90;86.00;;;;;;4958939;28;20026;-86
2022/04/12 08:14:24;;;;;;;3.17;2.72;;;18.30;83.90;;;;;;4958744;28;20026;-86
2022/04/12 08:16:49;;;;;;;8.75;2.90;;;18.50;81.70;;;;;;4954316;29;20027;-85
2022/04/12 08:19:17;;;;;;;3.90;2.17;;;18.80;78.50;;;;;;4958129;28;20427;-91
2022/04/12 08:21:43;;;;;;;7.10;2.45;;;19.00;77.30;;;;;;4940860;28;20439;-89
2022/04/12 08:24:08;;;;;;;3.00;2.30;;;19.30;76.20;;;;;;4948682;28;20031;-85
2022/04/12 08:26:35;;;;;;;2.65;2.30;;;19.70;74.70;;;;;;4950572;28;20031;-86
2022/04/12 08:29:01;;;;;;;7.35;2.60;;;20.00;73.50;;;;;;4984535;28;20054;-87
2022/04/12 08:31:27;;;;;;;3.13;2.20;;;20.30;72.10;;;;;;4965185;28;20026;-86
2022/04/12 08:33:52;;;;;;;3.47;2.35;;;20.60;70.60;;;;;;4954215;28;20049;-86
2022/04/12 08:36:21;;;;;;;2.80;1.73;;;20.90;69.20;;;;;;4969824;28;20126;-85
2022/04/12 08:38:49;;;;;;;3.47;1.73;;;21.10;67.20;;;;;;4963030;29;20023;-85
2022/04/12 08:41:15;;;;;;;2.35;1.90;;;21.30;66.10;;;;;;4965660;28;20030;-83
2022/04/12 08:43:41;;;;;;;2.53;1.80;;;21.40;64.70;;;;;;4967424;28;20030;-86
2022/04/12 08:46:07;;;;;;;3.55;1.80;;;21.40;63.50;;;;;;4967423;28;20038;-85
2022/04/12 08:48:34;;;;;;;4.53;1.73;;;21.40;63.10;;;;;;4953463;28;20031;-86
2022/04/12 08:51:00;;;;;;;2.85;1.73;;;21.50;63.00;;;;;;4977763;28;20027;-85
2022/04/12 08:53:27;;;;;;;4.68;1.80;;;21.80;62.10;;;;;;4950453;28;20027;-87
2022/04/12 08:55:53;;;;;;;4.40;1.90;;;22.10;61.60;;;;;;4973841;28;20030;-86
2022/04/12 08:58:19;;;;;;;3.25;1.60;;;22.30;60.80;;;;;;4973179;28;20523;-85
2022/04/12 09:00:45;;;;;;;4.45;1.80;;;22.60;60.30;;;;;;4956501;28;20031;-86
2022/04/12 09:03:14;;;;;;;4.05;1.95;;;22.90;59.40;;;;;;4949126;29;20050;-86
2022/04/12 09:05:40;;;;;;;3.05;1.85;;;23.30;58.50;;;;;;4970651;28;20027;-84
2022/04/12 09:08:27;;;;;;;1.65;1.50;;;23.60;57.40;;;;;;4969880;28;20101;-82
2022/04/12 09:11:05;;;;;;;3.45;1.40;;;23.80;55.60;;;;;;4945849;28;20410;-83
2022/04/12 09:13:31;;;;;;;3.05;1.80;;;24.10;54.50;;;;;;4948221;28;20023;-84
2022/04/12 09:15:59;;;;;;;4.18;1.40;;;24.40;54.20;;;;;;4971866;28;20038;-85
2022/04/12 09:18:34;;;;;;;2.55;1.88;;;24.70;53.20;;;;;;4962076;28;20562;-86
2022/04/12 09:21:14;;;;;;;4.95;1.80;;;25.00;52.20;;;;;;4973060;28;20070;-86
2022/04/12 09:23:51;;;;;;;4.05;1.55;;;25.20;51.70;;;;;;4959992;28;20031;-85
2022/04/12 09:26:30;;;;;;;2.08;1.38;;;25.30;51.60;;;;;;4958517;28;20039;-82
2022/04/12 09:29:00;;;;;;;2.95;1.77;;;25.50;51.10;;;;;;4940552;29;20122;-84
2022/04/12 09:31:25;;;;;;;2.00;1.73;;;25.40;50.90;;;;;;4953525;28;20034;-84
2022/04/12 09:33:53;;;;;;;2.55;1.60;;;25.40;50.90;;;;;;4951988;28;20022;-84
2022/04/12 09:36:18;;;;;;;2.17;1.63;;;25.40;50.70;;;;;;4951865;28;20027;-86
2022/04/12 09:38:45;;;;;;;3.58;1.40;;;25.20;50.80;;;;;;4958874;28;20176;-85
2022/04/12 09:41:26;;;;;;;2.47;1.05;;;25.10;50.80;;;;;;4948079;28;20474;-86
2022/04/12 09:44:12;;;;;;;2.30;1.20;;;25.30;50.20;;;;;;4961516;28;20035;-85
2022/04/12 09:46:39;;;;;;;3.88;1.30;;;25.40;49.80;;;;;;4972126;28;20027;-85
2022/04/12 09:49:06;;;;;;;4.25;1.45;;;25.40;50.00;;;;;;4953642;28;20601;-84
2022/04/12 09:51:36;;;;;;;3.03;1.20;;;25.70;49.90;;;;;;4948455;28;20167;-85
2022/04/12 09:54:02;;;;;;;5.90;1.20;;;26.00;49.30;;;;;;4948368;28;20153;-82
2022/04/12 09:56:29;;;;;;;2.55;1.00;;;26.50;48.60;;;;;;4966487;28;20166;-81
2022/04/12 09:58:57;;;;;;;1.95;1.40;;;26.90;48.50;;;;;;4953890;28;20078;-83
2022/04/12 10:01:23;;;;;;;3.75;1.45;;;27.20;48.40;;;;;;4950070;28;20496;-86
2022/04/12 10:03:54;;;;;;;5.90;1.48;;;27.40;48.10;;;;;;4953669;28;20062;-83
2022/04/12 10:06:23;;;;;;;6.20;1.42;;;27.50;47.30;;;;;;4963337;28;20035;-85
2022/04/12 10:09:10;;;;;;;2.22;1.38;;;27.50;47.40;;;;;;4945512;28;20090;-84
2022/04/12 10:11:37;;;;;;;4.15;1.45;;;27.50;47.30;;;;;;4956119;28;20114;-85
2022/04/12 10:14:03;;;;;;;1.92;1.30;;;27.70;46.90;;;;;;4951595;29;20100;-84
2022/04/12 10:16:28;;;;;;;1.55;1.33;;;27.80;46.40;;;;;;4968793;28;20023;-83
2022/04/12 10:18:54;;;;;;;2.58;1.60;;;28.00;46.00;;;;;;4980294;28;20041;-84
2022/04/12 10:21:22;;;;;;;3.58;1.40;;;28.10;45.70;;;;;;4985273;28;20556;-85
2022/04/12 10:23:56;;;;;;;2.25;1.52;;;28.30;45.50;;;;;;4974993;28;20046;-82
2022/04/12 10:26:24;;;;;;;2.85;1.20;;;28.20;45.30;;;;;;4958806;28;20410;-86
2022/04/12 10:28:59;;;;;;;3.08;1.38;;;27.90;45.70;;;;;;4955332;28;20121;-83
2022/04/12 10:31:28;;;;;;;1.67;1.30;;;27.60;45.70;;;;;;4957015;28;20588;-87
2022/04/12 10:34:11;;;;;;;2.85;1.15;;;27.60;45.90;;;;;;4961818;28;20089;-87
2022/04/12 10:36:58;;;;;;;1.30;1.20;;;27.60;45.70;;;;;;4980366;28;20045;-87
2022/04/12 10:39:30;;;;;;;2.40;1.00;;;27.90;45.70;;;;;;4970634;28;20034;-85
2022/04/12 10:41:58;;;;;;;2.28;1.33;;;28.10;45.40;;;;;;4948158;28;20387;-85
2022/04/12 10:44:25;;;;;;;1.10;1.00;;;28.30;45.50;;;;;;4966135;28;20095;-84
2022/04/12 10:46:51;;;;;;;2.28;1.35;;;28.30;45.10;;;;;;4968756;28;21927;-85
2022/04/12 10:49:19;;;;;;;3.58;1.30;;;28.20;45.20;;;;;;4979406;28;20055;-82
2022/04/12 10:51:46;;;;;;;7.20;1.40;;;27.90;45.30;;;;;;4973163;28;20034;-85
2022/04/12 10:54:34;;;;;;;4.47;1.20;;;27.70;45.80;;;;;;4980336;28;20019;-82
2022/04/12 10:57:18;;;;;;;1.08;0.80;;;27.30;46.00;;;;;;4958304;28;20042;-83
2022/04/12 11:00:12;;;;;;;1.92;0.90;;;27.00;46.20;;;;;;4970637;28;20487;-84
2022/04/12 11:02:51;;;;;;;1.10;0.55;;;26.70;46.20;;;;;;4953497;28;20487;-84
2022/04/12 11:05:43;;;;;;;2.70;0.77;;;26.50;46.60;;;;;;4958606;28;20552;-84
2022/04/12 11:08:14;;;;;;;3.22;0.90;;;26.40;47.00;;;;;;4914203;28;20045;-84
2022/04/12 11:10:52;;;;;;;5.30;1.73;;;26.30;47.70;;;;;;4951508;28;20123;-84
2022/04/12 11:13:28;;;;;;;1.48;0.60;;;26.20;47.10;;;;;;4954721;29;20028;-83
2022/04/12 11:15:55;;;;;;;0.93;0.60;;;26.10;46.70;;;;;;4957795;28;20039;-85
2022/04/12 11:18:21;;;;;;;2.95;0.70;;;25.90;46.20;;;;;;4981681;28;20019;-86
2022/04/12 11:20:59;;;;;;;1.45;0.70;;;25.80;46.00;;;;;;4960469;28;20075;-85
2022/04/12 11:24:04;;;;;;;2.47;0.80;;;25.50;45.50;;;;;;4965146;28;20059;-86
2022/04/12 11:26:47;;;;;;;1.40;0.80;;;25.30;46.00;;;;;;4987821;28;20034;-87
2022/04/12 11:29:18;;;;;;;2.88;1.10;;;25.20;45.50;;;;;;4961760;28;20086;-87
2022/04/12 11:31:53;;;;;;;3.10;1.00;;;25.10;46.40;;;;;;4970779;28;20015;-87
2022/04/12 11:34:20;;;;;;;2.95;1.50;;;25.20;47.00;;;;;;4945661;28;20125;-86
2022/04/12 11:37:07;;;;;;;1.98;0.60;;;25.20;47.20;;;;;;4958437;28;20018;-86
2022/04/12 11:39:38;;;;;;;2.55;1.40;;;25.10;46.60;;;;;;4969709;28;20034;-86
2022/04/12 11:42:06;;;;;;;3.30;1.20;;;25.10;46.80;;;;;;4942849;28;20070;-87
2022/04/12 11:44:32;;;;;;;2.13;1.25;;;25.10;47.40;;;;;;4961053;28;20275;-86
2022/04/12 11:47:01;;;;;;;1.80;0.93;;;25.10;47.40;;;;;;4941211;28;20027;-85
2022/04/12 11:49:32;;;;;;;4.07;1.23;;;25.00;47.60;;;;;;4967382;28;20070;-85
2022/04/12 11:52:02;;;;;;;1.10;1.00;;;25.00;47.20;;;;;;4945768;28;20039;-87
2022/04/12 11:54:35;;;;;;;4.88;1.63;;;24.90;47.50;;;;;;4948790;28;20158;-87
2022/04/12 11:57:13;;;;;;;1.80;1.08;;;24.80;47.30;;;;;;4969601;28;20018;-85
2022/04/12 11:59:44;;;;;;;2.60;1.17;;;24.70;47.60;;;;;;4955884;28;20023;-87
2022/04/12 12:02:11;;;;;;;1.35;1.00;;;24.60;47.70;;;;;;4963804;28;20575;-85
2022/04/12 12:04:43;;;;;;;2.53;0.82;;;24.60;48.50;;;;;;4954214;28;20118;-86
2022/04/12 12:07:09;;;;;;;;;;;24.60;48.20;;;;;;4958324;28;20031;-86
2022/04/12 12:09:35;;;;;;;1.27;0.90;;;24.50;49.00;;;;;;4946113;28;19949;-86
2022/04/12 12:12:05;;;;;;;1.98;0.90;;;24.50;48.60;;;;;;4955670;28;20054;-87
2022/04/12 12:14:31;;;;;;;3.30;1.00;;;24.50;48.30;;;;;;4937727;29;20031;-86
2022/04/12 12:17:08;;;;;;;2.17;1.08;;;24.50;48.40;;;;;;4937894;28;20031;-86
2022/04/12 12:19:38;;;;;;;2.17;0.70;;;24.50;48.20;;;;;;4959239;28;20073;-87
2022/04/12 12:22:07;;;;;;;0.90;0.70;;;24.40;47.40;;;;;;4953169;28;20031;-86
2022/04/12 12:24:37;;;;;;;1.15;1.05;;;24.30;48.00;;;;;;4962637;28;20458;-86
2022/04/12 12:27:04;;;;;;;1.25;1.00;;;24.30;47.80;;;;;;4954859;28;20030;-84
2022/04/12 12:29:36;;;;;;;5.22;1.00;;;24.20;48.10;;;;;;4951156;28;20071;-85
2022/04/12 12:32:02;;;;;;;3.47;0.90;;;24.10;47.70;;;;;;4969900;28;20019;-85
2022/04/12 12:34:35;;;;;;;2.70;0.95;;;24.10;48.30;;;;;;4944913;28;20031;-87
2022/04/12 12:37:11;;;;;;;1.58;0.95;;;24.00;47.70;;;;;;4956777;28;20027;-85
2022/04/12 12:39:38;;;;;;;3.50;0.90;;;23.90;48.10;;;;;;4962901;28;20025;-86
2022/04/12 12:42:05;;;;;;;3.75;1.05;;;23.90;48.50;;;;;;4972092;28;20034;-86
2022/04/12 12:44:36;;;;;;;1.20;0.90;;;23.90;48.60;;;;;;4953824;28;20037;-86
2022/04/12 12:47:04;;;;;;;0.90;0.90;;;23.90;48.60;;;;;;4979629;28;20476;-83
2022/04/12 12:49:41;;;;;;;3.55;0.90;;;23.90;48.70;;;;;;4976267;28;20029;-85
2022/04/12 12:52:17;;;;;;;0.77;0.77;;;23.90;48.10;;;;;;4968127;28;20154;-83
2022/04/12 12:54:55;;;;;;;5.07;1.00;;;23.70;47.50;;;;;;4950442;28;20039;-85
2022/04/12 12:57:35;;;;;;;2.85;1.40;;;23.70;49.00;;;;;;4949276;29;20038;-88
2022/04/12 13:00:07;;;;;;;2.20;0.80;;;23.70;49.00;;;;;;4944784;28;20070;-86
2022/04/12 13:02:36;;;;;;;1.67;1.17;;;23.60;48.70;;;;;;4962382;28;20266;-84
2022/04/12 13:05:07;;;;;;;3.65;1.02;;;23.60;49.00;;;;;;4963059;28;20035;-85
2022/04/12 13:07:34;;;;;;;1.45;1.30;;;23.60;48.90;;;;;;4969250;28;20042;-86
2022/04/12 13:10:09;;;;;;;1.75;1.10;;;23.60;49.20;;;;;;4967856;28;20038;-86
2022/04/12 13:12:35;;;;;;;1.88;0.85;;;23.50;49.00;;;;;;4955306;28;20046;-86
2022/04/12 13:15:01;;;;;;;0.75;0.75;;;23.50;49.20;;;;;;4970240;28;20495;-83
2022/04/12 13:17:27;;;;;;;1.70;0.88;;;23.40;48.70;;;;;;4953809;28;20403;-87
2022/04/12 13:19:52;;;;;;;1.52;0.80;;;23.30;48.50;;;;;;4968658;28;20483;-86
2022/04/12 13:22:18;;;;;;;1.35;1.00;;;23.20;48.80;;;;;;4944506;29;20519;-86
2022/04/12 13:24:44;;;;;;;1.58;0.77;;;23.20;48.80;;;;;;4941148;29;20060;-87
2022/04/12 13:27:10;;;;;;;1.10;0.80;;;23.10;48.50;;;;;;4973300;28;20114;-88
2022/04/12 13:29:35;;;;;;;1.98;0.80;;;23.10;48.50;;;;;;4969924;28;20062;-88
2022/04/12 13:32:01;;;;;;;3.47;0.70;;;23.00;48.40;;;;;;4969211;28;20040;-84
2022/04/12 13:34:27;;;;;;;0.82;0.60;;;23.00;48.20;;;;;;4968123;28;20498;-83
2022/04/12 13:36:53;;;;;;;0.68;0.63;;;23.00;48.40;;;;;;4946137;28;20596;-81
2022/04/12 13:39:18;;;;;;;0.90;0.63;;;22.90;48.20;;;;;;4946300;28;20023;-83
2022/04/12 13:41:44;;;;;;;1.65;0.80;;;22.90;48.30;;;;;;4953486;28;20042;-81
2022/04/12 13:44:11;;;;;;;2.35;0.88;;;22.90;48.40;;;;;;4955596;28;20114;-82
2022/04/12 13:46:36;;;;;;;6.63;1.17;;;22.90;48.60;;;;;;4938868;28;20037;-82
2022/04/12 13:49:03;;;;;;;2.97;1.15;;;22.90;48.90;;;;;;4947056;28;20035;-82
2022/04/12 13:51:29;;;;;;;1.75;1.00;;;22.90;48.90;;;;;;4950940;28;20026;-84
2022/04/12 13:53:55;;;;;;;1.25;0.93;;;22.90;49.00;;;;;;4941212;29;20038;-83
2022/04/12 13:56:21;;;;;;;2.30;1.10;;;22.90;48.70;;;;;;4957430;28;20440;-83
2022/04/12 13:58:47;;;;;;;1.48;0.95;;;22.80;48.90;;;;;;4945409;28;20027;-84
2022/04/12 14:06:24;;;;;;;1.40;0.70;;;22.70;49.00;;;;;;4946428;29;20051;-89
2022/04/12 14:08:50;;;;;;;0.70;0.70;;;22.70;48.80;;;;;;4919575;29;20032;-89
2022/04/12 14:11:16;;;;;;;3.30;0.90;;;22.70;48.50;;;;;;4922001;29;20032;-89
2022/04/12 14:13:43;;;;;;;1.45;1.00;;;22.70;48.20;;;;;;4948892;29;20455;-89
2022/04/12 14:16:12;;;;;;;5.68;1.00;;;22.60;48.40;;;;;;4940864;28;20467;-88
2022/04/12 14:18:41;;;;;;;3.03;1.00;;;22.60;48.40;;;;;;4973763;28;20077;-88
2022/04/12 14:21:08;;;;;;;1.33;0.80;;;22.70;48.50;;;;;;4975352;28;20030;-90
2022/04/12 14:23:38;;;;;;;0.75;0.75;;;22.70;48.90;;;;;;4961367;28;20503;-88
2022/04/12 14:26:07;;;;;;;2.97;1.15;;;22.60;48.20;;;;;;4973593;28;20106;-86
2022/04/12 14:28:34;;;;;;;1.80;0.70;;;22.60;48.00;;;;;;4960021;28;20050;-87
2022/04/12 14:31:08;;;;;;;0.85;0.55;;;22.50;48.00;;;;;;4941437;29;20019;-90
2022/04/12 14:33:35;;;;;;;1.02;0.60;;;22.50;47.50;;;;;;4942637;28;20019;-87
2022/04/12 14:36:02;;;;;;;3.40;0.70;;;22.40;47.70;;;;;;4952950;28;20050;-88
2022/04/12 14:38:27;;;;;;;1.55;0.80;;;22.40;48.10;;;;;;4948940;28;20098;-89
2022/04/12 14:40:56;;;;;;;2.47;0.80;;;22.30;48.30;;;;;;4954138;28;20456;-87
2022/04/12 14:43:29;;;;;;;4.57;0.70;;;22.30;48.20;;;;;;4948367;28;20424;-86
2022/04/12 14:45:55;;;;;;;1.45;0.70;;;22.30;48.50;;;;;;4952069;28;20041;-87
2022/04/12 14:48:22;;;;;;;3.33;0.70;;;22.30;48.60;;;;;;4959485;28;20198;-86
2022/04/12 14:50:47;;;;;;;1.38;0.85;;;22.30;48.60;;;;;;4945338;28;20019;-87
2022/04/12 14:53:19;;;;;;;2.60;1.10;;;22.30;48.70;;;;;;4971737;28;20041;-87
2022/04/12 14:55:46;;;;;;;1.75;0.98;;;22.20;48.80;;;;;;4972743;28;20023;-90
2022/04/12 14:58:12;;;;;;;3.38;0.93;;;22.10;48.90;;;;;;4940971;29;20403;-88
2022/04/12 15:00:38;;;;;;;1.13;1.05;;;22.10;49.00;;;;;;4936638;29;20042;-87
2022/04/12 15:03:04;;;;;;;1.33;0.88;;;22.10;49.10;;;;;;4962789;28;20050;-89
2022/04/12 15:05:30;;;;;;;2.33;1.20;;;22.10;49.40;;;;;;4953533;28;20470;-91
2022/04/12 15:07:56;;;;;;;1.70;1.00;;;22.00;49.20;;;;;;4954119;28;20050;-92
2022/04/12 15:10:22;;;;;;;4.72;1.20;;;22.00;49.00;;;;;;4942195;29;20551;-90
2022/04/12 15:12:47;;;;;;;1.13;1.02;;;21.90;49.10;;;;;;4946989;28;20069;-89
2022/04/12 15:15:13;;;;;;;4.53;1.30;;;21.90;49.10;;;;;;4937410;29;20023;-89
2022/04/12 15:17:40;;;;;;;1.85;1.17;;;21.80;49.30;;;;;;4937937;28;20395;-87
2022/04/12 15:20:11;;;;;;;2.25;1.00;;;21.80;49.30;;;;;;4953823;28;20027;-85
2022/04/12 15:22:37;;;;;;;3.47;1.42;;;21.70;49.20;;;;;;4944796;28;20399;-85
2022/04/12 15:25:04;;;;;;;2.03;1.20;;;21.70;49.40;;;;;;4946500;29;20035;-87
2022/04/12 15:27:30;;;;;;;3.70;1.10;;;21.70;49.40;;;;;;4970093;28;20031;-87